Aérodrome :
LOGIN :

S'inscrire | Disclaimer

   EN    FR    IT 

 










Légende :    VFR   VFR Marginal   IFR   IFR Intensif   IFR Très Intensif
Visi : 
Plafond : 
>= 8 km
>= 3000ft
5 à 8 km
1000 à 3000 ft
1500m à 5 km
500 à 1000 ft
800 à 1500m
200 à 500 ft
< 800m
< 200 ft
Symboles :   Orages  Brouillard  Fortes neiges  Fortes précipitations  Vent > 20 kt
SIGMETs :   Divers  Orages  Givrage  Turbulence  Onde Orograph.  Cendres Volcan.







- Altitude de l'aérodrome : 1910 ft
- Code IATA : RDZ
- Voir les cartes d'approche


LFCR - Rodez

DERNIER METAR :
  • 241130Z AUTO 31009KT 270V340 9999 BKN018 OVC120 17/12 Q1017 TEMPO 30015G25KT 3000 SHRA SCT025CB

METARs EXPIRÉS :
  • 241100Z AUTO 32010KT 9999 BKN018 OVC120 16/12 Q1017 NOSIG
  • 241030Z AUTO 30011KT 9999 BKN016 BKN070 BKN210 16/11 Q1017 NOSIG
  • 241000Z AUTO 29011KT 9999 BKN016 BKN021 16/12 Q1017 NOSIG
  • 240930Z AUTO 28011KT 9999 BKN016 16/12 Q1017 NOSIG
  • 240900Z AUTO 28010KT 9999 BKN016 BKN098 16/12 Q1017 TEMPO BKN010 BKN070

TAF AMD TAF LFCR
Valide du 24 à 12h jusqu'au 25 à 12h UTC


241144Z 2412/2512 30010KT 9999 BKN018
TEMPO 2413/2419 30015G25KT 3000 SHRA BKN008 SCT030CB
PROB30
TEMPO 2413/2417 -TSRA SCT025CB
BECMG 2420/2422 OVC005
TEMPO 2422/2509 4000 -RADZ
PROB40
TEMPO 2504/2509 2000 RA OVC002
BECMG 2509/2511 BKN011
Pas de NOTAMs connus pour ce terrain.
1 SIGMET publié pour la FIR Bordeaux (LFBB) :
 
Turbulence forte
LFBB SIGMET 1 VALID 240800/241200 LFPW
LFBB BORDEAUX FIR/UIR SEV TURB FCST WI N4245 W00030 - N4300 W00145 - N4430 W00145 - N4545 W00045 - N4615 E00130 - N4245 W00030 FL260/340 STNR NC=



MET'MAP, la Météo Aéronautique d'un coup d'oeil ! - Copyright ORBIFLY Décembre 2007 - Disclaimer

ORBIFLY MET'MAP TEAM :

Programmation & Développement : Alexandra Zaïnal
Conception & Développement : Baudouin d'Aumeries
Co-Programmation & Développement : Marc-Olivier Méhu
Soutien technique & logistique : Manuel Goepfert

Contact : metmap@orbifly.com




SOURCES & CREDITS :

   NOAA